Time;durP1;ratioP1;P1;durP2;ratioP2;P2;SDS_P1;SDS_P2;PMS_P1;PMS_P2;Temp;Humidity;BMP_temperature;BMP_pressure;BME280_temperature;BME280_humidity;BME280_pressure;Samples;Min_cycle;Max_cycle;Signal;HPM_P1;HPM_P2
2022/09/20 00:01:13;;;;;;;3.85;1.25;;;15.50;86.20;;;;;;5081914;28;20024;-65
2022/09/20 00:03:44;;;;;;;3.90;1.40;;;15.50;86.20;;;;;;5082482;28;20078;-64
2022/09/20 00:06:16;;;;;;;2.25;1.35;;;15.50;86.20;;;;;;5075643;28;20085;-65
2022/09/20 00:08:42;;;;;;;2.00;1.40;;;15.50;86.20;;;;;;5070500;28;20032;-65
2022/09/20 00:11:14;;;;;;;2.97;1.55;;;15.40;86.10;;;;;;5079758;28;20027;-65
2022/09/20 00:13:40;;;;;;;4.55;1.63;;;15.50;86.10;;;;;;5059151;28;20029;-65
2022/09/20 00:16:14;;;;;;;1.42;1.30;;;15.40;86.10;;;;;;5078206;28;20485;-64
2022/09/20 00:18:40;;;;;;;2.53;1.45;;;15.50;86.10;;;;;;5082252;28;20020;-65
2022/09/20 00:21:06;;;;;;;1.27;1.17;;;15.40;86.10;;;;;;5099300;22;20367;-67
2022/09/20 00:23:32;;;;;;;2.40;1.30;;;15.40;86.10;;;;;;5076525;28;20028;-67
2022/09/20 00:26:03;;;;;;;2.90;1.42;;;15.40;86.00;;;;;;5077555;28;20023;-67
2022/09/20 00:28:30;;;;;;;3.25;1.50;;;15.40;86.00;;;;;;5081250;28;20464;-67
2022/09/20 00:30:56;;;;;;;3.83;1.40;;;15.40;86.00;;;;;;5081245;28;20489;-67
2022/09/20 00:33:23;;;;;;;1.63;1.23;;;15.40;86.00;;;;;;5069430;28;20020;-67
2022/09/20 00:35:49;;;;;;;3.55;1.35;;;15.40;86.00;;;;;;5078038;28;20017;-67
2022/09/20 00:38:15;;;;;;;2.67;1.20;;;15.40;86.00;;;;;;5077200;28;20107;-67
2022/09/20 00:40:44;;;;;;;2.33;1.40;;;15.40;86.00;;;;;;5074654;28;20023;-67
2022/09/20 00:43:14;;;;;;;5.97;1.30;;;15.40;86.00;;;;;;5081224;28;20028;-67
2022/09/20 00:45:42;;;;;;;3.30;1.42;;;15.40;86.00;;;;;;5077878;28;20020;-67
2022/09/20 00:48:21;;;;;;;4.35;1.38;;;15.40;85.90;;;;;;5086225;28;20500;-67
2022/09/20 00:50:53;;;;;;;4.43;1.10;;;15.40;85.90;;;;;;5077551;28;20389;-67
2022/09/20 00:53:32;;;;;;;3.40;1.38;;;15.30;85.90;;;;;;5077372;28;20060;-68
2022/09/20 00:56:08;;;;;;;7.97;1.23;;;15.30;85.80;;;;;;5077810;28;20151;-67
2022/09/20 00:58:40;;;;;;;2.33;1.10;;;15.30;85.80;;;;;;5072954;28;20076;-67
2022/09/20 01:01:06;;;;;;;2.05;1.02;;;15.30;85.80;;;;;;5081387;28;20020;-67
2022/09/20 01:03:35;;;;;;;5.30;1.30;;;15.30;85.80;;;;;;5082038;28;20032;-67
2022/09/20 01:06:05;;;;;;;1.05;0.95;;;15.30;85.80;;;;;;5081363;28;20036;-67
2022/09/20 01:08:33;;;;;;;2.13;1.20;;;15.30;85.80;;;;;;5083224;28;20032;-67
2022/09/20 01:10:59;;;;;;;0.95;0.93;;;15.30;85.80;;;;;;5084950;28;20024;-67
2022/09/20 01:13:24;;;;;;;1.98;1.33;;;15.30;85.70;;;;;;5082624;28;20016;-67
2022/09/20 01:15:51;;;;;;;1.83;1.00;;;15.30;85.70;;;;;;5074843;28;20073;-67
2022/09/20 01:18:18;;;;;;;3.10;1.23;;;15.30;85.70;;;;;;5084596;28;20021;-67
2022/09/20 01:20:45;;;;;;;4.68;1.42;;;15.30;85.70;;;;;;5084585;28;20024;-67
2022/09/20 01:23:47;;;;;;;2.05;1.00;;;15.30;85.70;;;;;;5082191;28;20789;-67
2022/09/20 01:26:36;;;;;;;3.40;1.20;;;15.30;85.60;;;;;;5080921;28;20028;-68
2022/09/20 01:29:30;;;;;;;2.65;1.58;;;15.30;85.60;;;;;;5081333;28;20025;-67
2022/09/20 01:32:01;;;;;;;2.03;1.10;;;15.20;85.50;;;;;;5078272;28;20032;-67
2022/09/20 01:34:30;;;;;;;1.88;1.23;;;15.30;85.50;;;;;;5082667;28;20110;-67
2022/09/20 01:37:10;;;;;;;4.47;1.38;;;15.20;85.50;;;;;;5087637;28;20519;-67
2022/09/20 01:40:00;;;;;;;1.75;1.40;;;15.20;85.40;;;;;;5081693;28;20013;-67
2022/09/20 01:42:34;;;;;;;2.30;1.23;;;15.20;85.40;;;;;;5088723;28;20097;-67
2022/09/20 01:45:16;;;;;;;3.83;1.35;;;15.20;85.40;;;;;;5081036;28;20020;-67
2022/09/20 01:48:35;;;;;;;2.40;1.40;;;15.20;85.40;;;;;;5072132;28;20028;-67
2022/09/20 01:51:37;;;;;;;4.80;1.70;;;15.20;85.50;;;;;;5024128;28;20037;-67
2022/09/20 01:54:27;;;;;;;2.55;1.45;;;15.20;85.30;;;;;;4969827;28;20047;-67
2022/09/20 01:57:11;;;;;;;2.45;1.05;;;15.20;85.30;;;;;;4970366;28;20479;-67
2022/09/20 02:00:08;;;;;;;2.75;1.42;;;15.20;85.30;;;;;;4954557;28;20035;-67
2022/09/20 02:02:52;;;;;;;2.47;1.48;;;15.20;85.30;;;;;;4969611;28;20225;-67
2022/09/20 02:05:46;;;;;;;1.65;1.20;;;15.20;85.30;;;;;;4970730;28;20042;-67
2022/09/20 02:08:31;;;;;;;6.20;1.42;;;15.20;85.30;;;;;;4969472;28;20142;-67
2022/09/20 02:11:15;;;;;;;1.30;1.13;;;15.20;85.20;;;;;;4970560;28;20062;-67
2022/09/20 02:13:46;;;;;;;1.35;1.20;;;15.20;85.20;;;;;;4969992;28;20116;-67
2022/09/20 02:16:44;;;;;;;2.58;1.40;;;15.20;85.20;;;;;;4970261;28;20027;-67
2022/09/20 02:19:48;;;;;;;2.35;1.15;;;15.20;85.20;;;;;;4970397;28;20404;-67
2022/09/20 02:22:38;;;;;;;1.77;1.02;;;15.20;85.10;;;;;;4965587;28;20050;-67
2022/09/20 02:25:03;;;;;;;2.90;1.17;;;15.10;85.10;;;;;;4977802;28;20499;-67
2022/09/20 02:27:39;;;;;;;2.70;1.00;;;15.20;85.10;;;;;;4998545;28;20376;-67
2022/09/20 02:30:30;;;;;;;2.25;1.15;;;15.20;85.10;;;;;;5010701;28;20067;-67
2022/09/20 02:33:01;;;;;;;2.13;1.42;;;15.10;85.00;;;;;;5076421;28;20020;-67
2022/09/20 02:36:12;;;;;;;2.38;1.10;;;15.20;85.10;;;;;;5082752;28;20032;-67
2022/09/20 02:38:37;;;;;;;;;;;15.10;85.10;;;;;;5010843;28;20093;-67
2022/09/20 02:41:44;;;;;;;1.58;1.20;;;15.10;85.00;;;;;;5009123;28;20301;-67
2022/09/20 02:44:28;;;;;;;2.15;1.20;;;15.20;85.10;;;;;;4989296;28;20058;-67
2022/09/20 02:47:05;;;;;;;3.38;1.35;;;15.10;85.00;;;;;;4973423;28;20031;-67
2022/09/20 02:49:40;;;;;;;1.30;1.20;;;15.10;85.00;;;;;;4989308;28;20035;-67
2022/09/20 02:52:25;;;;;;;1.95;1.17;;;15.20;85.80;;;;;;4989584;28;20030;-67
2022/09/20 02:54:59;;;;;;;1.90;1.30;;;15.10;85.00;;;;;;4981115;28;20034;-67
2022/09/20 02:57:28;;;;;;;2.05;1.20;;;15.10;85.00;;;;;;4985713;28;20096;-67
2022/09/20 03:00:20;;;;;;;3.38;1.55;;;15.10;85.00;;;;;;4987959;28;20050;-67
2022/09/20 03:03:05;;;;;;;1.52;1.25;;;15.10;84.90;;;;;;4988569;28;20034;-67
2022/09/20 03:05:52;;;;;;;2.42;1.20;;;15.20;85.00;;;;;;4988781;28;20031;-67
2022/09/20 03:08:17;;;;;;;1.92;1.30;;;15.10;84.90;;;;;;4987879;28;20085;-67
2022/09/20 03:10:56;;;;;;;1.40;1.30;;;15.10;84.90;;;;;;4988933;28;20460;-67
2022/09/20 03:13:56;;;;;;;2.03;1.20;;;15.10;84.90;;;;;;5021491;28;20033;-67
2022/09/20 03:16:43;;;;;;;3.03;1.25;;;15.10;84.90;;;;;;5077871;28;20492;-67
2022/09/20 03:19:38;;;;;;;2.08;1.15;;;15.10;85.60;;;;;;5076062;28;20097;-67
2022/09/20 03:22:03;;;;;;;3.17;1.40;;;15.10;84.80;;;;;;5075309;28;20043;-67
2022/09/20 03:25:11;;;;;;;5.28;1.50;;;15.10;84.80;;;;;;5069507;28;20028;-67
2022/09/20 03:27:43;;;;;;;6.25;1.00;;;15.10;84.80;;;;;;5062338;28;20068;-67
2022/09/20 03:30:17;;;;;;;2.65;1.40;;;15.10;84.80;;;;;;5082434;28;20377;-67
2022/09/20 03:33:06;;;;;;;4.22;1.58;;;15.10;84.70;;;;;;5080475;28;20027;-67
2022/09/20 03:35:47;;;;;;;3.13;1.50;;;15.10;84.80;;;;;;5078862;28;20028;-67
2022/09/20 03:38:55;;;;;;;3.05;1.30;;;15.20;84.80;;;;;;5080662;28;20039;-67
2022/09/20 03:42:00;;;;;;;3.38;1.20;;;15.10;84.80;;;;;;5007807;28;20033;-67
2022/09/20 03:44:49;;;;;;;4.65;1.20;;;15.10;84.80;;;;;;5078673;28;20092;-67
2022/09/20 03:47:53;;;;;;;2.17;1.25;;;15.10;84.80;;;;;;5075472;28;20020;-67
2022/09/20 03:50:30;;;;;;;2.25;1.23;;;15.10;84.70;;;;;;5076491;28;20047;-67
2022/09/20 03:53:38;;;;;;;2.05;1.13;;;15.10;84.70;;;;;;5079877;28;20473;-67
2022/09/20 03:56:10;;;;;;;3.42;1.20;;;15.20;84.70;;;;;;5007098;28;20499;-67
2022/09/20 03:59:05;;;;;;;0.90;0.85;;;15.10;84.80;;;;;;5007721;28;20386;-67
2022/09/20 04:01:55;;;;;;;5.63;1.23;;;15.20;84.80;;;;;;5007621;28;20439;-67
2022/09/20 04:04:29;;;;;;;;;;;15.20;84.80;;;;;;4995112;28;20033;-67
2022/09/20 04:07:31;;;;;;;3.08;1.20;;;15.10;84.70;;;;;;4998957;28;19913;-67
2022/09/20 04:10:18;;;;;;;5.50;1.20;;;15.10;84.70;;;;;;5000480;28;20113;-67
2022/09/20 04:13:22;;;;;;;1.67;1.05;;;15.20;85.50;;;;;;5007793;28;20454;-67
2022/09/20 04:16:05;;;;;;;2.35;1.27;;;15.20;84.80;;;;;;5007313;28;20033;-67
2022/09/20 04:18:59;;;;;;;2.70;1.00;;;15.20;84.80;;;;;;5007629;28;20029;-67
2022/09/20 04:21:34;;;;;;;3.45;1.50;;;15.10;84.80;;;;;;5005494;28;20491;-67
2022/09/20 04:24:24;;;;;;;2.75;1.27;;;15.20;84.80;;;;;;5000039;28;20042;-67
2022/09/20 04:26:56;;;;;;;2.35;1.30;;;15.20;84.80;;;;;;5006979;28;20074;-67
2022/09/20 04:29:43;;;;;;;1.80;1.50;;;15.20;84.80;;;;;;5007446;28;20034;-67
2022/09/20 04:32:14;;;;;;;2.83;1.35;;;15.10;85.50;;;;;;5031264;28;20036;-67
2022/09/20 04:37:38;;;;;;;5.68;1.20;;;15.20;84.80;;;;;;5085653;28;20032;-67
2022/09/20 04:40:19;;;;;;;4.95;1.17;;;15.20;84.80;;;;;;5084375;28;20028;-67
2022/09/20 04:42:51;;;;;;;1.23;1.13;;;15.20;84.80;;;;;;5084677;28;20531;-68
2022/09/20 04:45:31;;;;;;;4.97;1.58;;;15.20;84.80;;;;;;5081964;28;20031;-67
2022/09/20 04:48:28;;;;;;;2.00;1.58;;;15.20;85.50;;;;;;5084056;28;20043;-67
2022/09/20 04:51:16;;;;;;;4.72;1.60;;;15.20;84.80;;;;;;5083496;28;20120;-67
2022/09/20 04:54:12;;;;;;;1.80;1.40;;;15.20;84.70;;;;;;5084834;28;20039;-67
2022/09/20 04:56:58;;;;;;;4.20;1.40;;;15.20;84.80;;;;;;5081554;28;20044;-67
2022/09/20 04:59:30;;;;;;;2.17;1.70;;;15.20;84.80;;;;;;5077780;28;20111;-67
2022/09/20 05:02:30;;;;;;;2.60;1.42;;;15.20;84.80;;;;;;5083071;28;20028;-67
2022/09/20 05:04:55;;;;;;;2.33;1.52;;;15.20;84.80;;;;;;5083740;28;20017;-67
2022/09/20 05:07:21;;;;;;;5.35;1.83;;;15.20;84.80;;;;;;5084278;28;20036;-67
2022/09/20 05:10:14;;;;;;;2.53;1.70;;;15.10;84.70;;;;;;5078464;28;20028;-67
2022/09/20 05:13:07;;;;;;;4.13;1.70;;;15.20;84.80;;;;;;5072275;28;20382;-67
2022/09/20 05:16:03;;;;;;;3.97;1.40;;;15.20;84.80;;;;;;5079653;28;20504;-67
2022/09/20 05:18:44;;;;;;;4.30;1.27;;;15.20;84.80;;;;;;5079157;28;20099;-67
2022/09/20 05:21:13;;;;;;;4.00;1.50;;;15.20;84.80;;;;;;5084544;28;20032;-67
2022/09/20 05:23:38;;;;;;;2.97;1.30;;;15.20;84.80;;;;;;5082455;28;20523;-68
2022/09/20 05:26:35;;;;;;;3.53;1.27;;;15.10;84.70;;;;;;5081259;28;20051;-67
2022/09/20 05:29:08;;;;;;;2.63;1.27;;;15.10;84.80;;;;;;5083459;28;20181;-67
2022/09/20 05:32:18;;;;;;;1.85;1.30;;;15.20;84.80;;;;;;5084682;28;20110;-67
2022/09/20 05:35:10;;;;;;;5.15;1.15;;;15.20;84.80;;;;;;5018172;28;20103;-67
2022/09/20 05:38:01;;;;;;;5.50;1.50;;;15.20;84.80;;;;;;5041531;28;20040;-67
2022/09/20 05:41:07;;;;;;;2.83;1.15;;;15.10;84.80;;;;;;5015995;28;20033;-67
2022/09/20 05:43:44;;;;;;;4.00;1.30;;;15.20;84.80;;;;;;5007827;28;20060;-67
2022/09/20 05:46:40;;;;;;;8.57;2.05;;;15.20;84.80;;;;;;5029354;28;20472;-67
2022/09/20 05:49:30;;;;;;;3.10;1.23;;;15.20;84.80;;;;;;5029906;28;20120;-67
2022/09/20 05:52:30;;;;;;;2.55;1.15;;;15.20;84.90;;;;;;5029745;28;20037;-67
2022/09/20 05:55:01;;;;;;;3.78;1.45;;;15.20;84.90;;;;;;5027522;28;20025;-67
2022/09/20 05:57:49;;;;;;;2.88;1.35;;;15.20;84.80;;;;;;5023040;28;20064;-67
2022/09/20 06:00:20;;;;;;;9.25;1.83;;;15.20;84.80;;;;;;5012959;28;20493;-67
2022/09/20 06:03:07;;;;;;;5.60;1.45;;;15.20;84.90;;;;;;5029689;28;20072;-67
2022/09/20 06:05:57;;;;;;;5.05;1.25;;;15.20;84.90;;;;;;5023683;28;20132;-67
2022/09/20 06:08:51;;;;;;;5.15;1.60;;;15.20;84.90;;;;;;5021969;28;20076;-67
2022/09/20 06:11:41;;;;;;;5.40;2.00;;;15.20;84.90;;;;;;5080380;28;20043;-67
2022/09/20 06:14:12;;;;;;;6.53;2.00;;;15.20;85.00;;;;;;5081916;28;20082;-67
2022/09/20 06:16:56;;;;;;;3.80;1.50;;;15.20;85.00;;;;;;5083962;28;20723;-67
2022/09/20 06:19:45;;;;;;;1.83;1.50;;;15.20;84.90;;;;;;5075707;28;20027;-67
2022/09/20 06:22:34;;;;;;;3.42;1.50;;;15.20;85.00;;;;;;5080900;28;20568;-67
2022/09/20 06:25:09;;;;;;;2.38;1.50;;;15.20;85.00;;;;;;5086030;28;20028;-67
2022/09/20 06:27:48;;;;;;;6.93;1.77;;;15.20;85.00;;;;;;5079667;28;20028;-67
2022/09/20 06:30:28;;;;;;;7.15;1.65;;;15.20;85.00;;;;;;5086944;28;20555;-67
2022/09/20 06:32:59;;;;;;;5.50;1.40;;;15.20;85.00;;;;;;5080259;28;20048;-67
2022/09/20 06:35:34;;;;;;;3.83;1.58;;;15.30;85.10;;;;;;5080126;28;20021;-67
2022/09/20 06:41:27;;;;;;;1.83;1.50;;;15.30;85.10;;;;;;5077137;28;20162;-67
2022/09/20 06:43:58;;;;;;;11.75;1.83;;;15.20;85.00;;;;;;5079918;28;20079;-67
2022/09/20 06:46:27;;;;;;;5.72;1.95;;;15.30;85.10;;;;;;5077735;28;20056;-68
2022/09/20 06:48:54;;;;;;;2.47;1.30;;;15.30;85.10;;;;;;5079881;28;20036;-67
2022/09/20 06:51:21;;;;;;;2.25;1.27;;;15.30;85.10;;;;;;5082735;28;20016;-68
2022/09/20 06:53:47;;;;;;;4.18;1.45;;;15.30;85.10;;;;;;5081876;28;20073;-67
2022/09/20 06:56:21;;;;;;;3.75;1.83;;;15.30;85.10;;;;;;5078534;28;20036;-67
2022/09/20 06:58:46;;;;;;;4.13;2.00;;;15.30;85.10;;;;;;5085444;28;20414;-67
2022/09/20 07:01:12;;;;;;;4.72;1.90;;;15.30;85.10;;;;;;5079033;28;20028;-67
2022/09/20 07:03:39;;;;;;;4.90;1.60;;;15.30;85.10;;;;;;5079308;28;20032;-67
2022/09/20 07:06:05;;;;;;;7.10;2.08;;;15.30;85.10;;;;;;5079439;28;20040;-68
2022/09/20 07:08:31;;;;;;;4.38;1.65;;;15.30;85.10;;;;;;5082694;28;20028;-67
2022/09/20 07:11:02;;;;;;;4.60;1.67;;;15.30;85.10;;;;;;5078795;28;20101;-68
2022/09/20 07:13:27;;;;;;;6.35;1.67;;;15.30;85.10;;;;;;5081585;28;20048;-67
2022/09/20 07:16:00;;;;;;;3.55;1.75;;;15.40;85.20;;;;;;5082296;28;20040;-67
2022/09/20 07:18:26;;;;;;;7.50;2.20;;;15.30;85.10;;;;;;5082411;28;20031;-67
2022/09/20 07:20:52;;;;;;;9.00;2.00;;;15.40;85.20;;;;;;5082325;28;20012;-68
2022/09/20 07:23:18;;;;;;;8.13;2.25;;;15.40;85.20;;;;;;5080169;28;20032;-67
2022/09/20 07:25:43;;;;;;;4.28;2.08;;;15.40;85.10;;;;;;5076965;28;20408;-68
2022/09/20 07:28:09;;;;;;;11.70;2.20;;;15.40;85.20;;;;;;5094073;28;20036;-68
2022/09/20 07:30:34;;;;;;;9.18;1.88;;;15.40;85.20;;;;;;5078988;28;20024;-67
2022/09/20 07:33:02;;;;;;;6.95;2.13;;;15.40;85.20;;;;;;5079273;28;20431;-67
2022/09/20 07:35:28;;;;;;;2.55;1.88;;;15.40;85.20;;;;;;5082942;28;20072;-67
2022/09/20 07:37:57;;;;;;;4.18;2.20;;;15.50;85.30;;;;;;5073776;28;20095;-67
2022/09/20 07:40:24;;;;;;;5.18;1.83;;;15.40;85.20;;;;;;5077253;28;20032;-67
2022/09/20 07:42:49;;;;;;;8.00;1.98;;;15.50;85.20;;;;;;5075438;28;20069;-67
2022/09/20 07:45:15;;;;;;;6.03;2.03;;;15.50;85.30;;;;;;5080446;28;20464;-67
2022/09/20 07:47:43;;;;;;;4.55;2.17;;;15.50;85.30;;;;;;5078047;28;20043;-67
2022/09/20 07:50:10;;;;;;;4.75;2.20;;;15.50;85.30;;;;;;5079254;28;20028;-67
2022/09/20 07:52:36;;;;;;;5.50;2.20;;;15.50;85.30;;;;;;5081856;28;20026;-68
2022/09/20 07:55:01;;;;;;;5.97;2.03;;;15.50;85.30;;;;;;5079125;28;20031;-67
2022/09/20 07:57:27;;;;;;;4.63;2.03;;;15.50;85.30;;;;;;5078127;28;20025;-68
2022/09/20 07:59:53;;;;;;;3.50;1.95;;;15.60;85.40;;;;;;5078335;28;20056;-67
2022/09/20 08:02:18;;;;;;;2.95;1.90;;;15.60;85.40;;;;;;5079695;28;20021;-69
2022/09/20 08:04:44;;;;;;;2.63;2.15;;;15.60;85.40;;;;;;5080557;28;20115;-68
2022/09/20 08:07:11;;;;;;;5.72;2.10;;;15.60;85.40;;;;;;5080773;28;20326;-68
2022/09/20 08:09:37;;;;;;;5.55;2.35;;;15.60;85.40;;;;;;5077850;28;20504;-67
2022/09/20 08:12:04;;;;;;;5.43;2.17;;;15.70;85.50;;;;;;5070899;28;20029;-67
2022/09/20 08:14:30;;;;;;;11.25;2.85;;;15.70;85.50;;;;;;5081395;28;20023;-67
2022/09/20 08:16:59;;;;;;;4.82;2.15;;;15.70;85.50;;;;;;5074776;28;20058;-67
2022/09/20 08:19:24;;;;;;;5.50;2.15;;;15.70;85.40;;;;;;5079861;28;20032;-68
2022/09/20 08:21:54;;;;;;;7.35;2.60;;;15.70;85.50;;;;;;5080359;28;20367;-68
2022/09/20 08:24:20;;;;;;;5.68;2.95;;;15.70;85.50;;;;;;5079428;28;20028;-68
2022/09/20 08:26:47;;;;;;;3.35;2.45;;;15.80;85.50;;;;;;5077601;28;20037;-67
2022/09/20 08:29:14;;;;;;;11.70;2.97;;;15.80;85.50;;;;;;5078119;28;20502;-68
2022/09/20 08:31:41;;;;;;;9.52;2.83;;;15.80;85.50;;;;;;5081734;28;20320;-67
2022/09/20 08:34:10;;;;;;;4.13;2.45;;;15.80;85.60;;;;;;5081570;28;20391;-67
2022/09/20 08:36:39;;;;;;;6.83;2.73;;;15.80;85.50;;;;;;5076358;28;20048;-67
2022/09/20 08:39:05;;;;;;;4.28;2.28;;;15.80;85.60;;;;;;5078082;28;20070;-67
2022/09/20 08:41:38;;;;;;;7.53;2.97;;;15.90;85.60;;;;;;5079816;28;20029;-67
2022/09/20 08:44:06;;;;;;;7.65;2.30;;;15.80;85.50;;;;;;5081544;28;20067;-67
2022/09/20 08:46:36;;;;;;;7.50;2.28;;;15.90;85.60;;;;;;5076781;28;20024;-67
2022/09/20 08:49:07;;;;;;;8.18;3.00;;;15.90;85.60;;;;;;5077631;28;20048;-67
2022/09/20 08:51:36;;;;;;;7.22;2.40;;;15.90;85.50;;;;;;5080622;28;20029;-68
2022/09/20 08:54:03;;;;;;;6.00;2.10;;;15.90;85.50;;;;;;5080045;28;20028;-67
2022/09/20 08:59:46;;;;;;;5.00;1.73;;;15.90;85.40;;;;;;5084901;22;20044;-64
2022/09/20 09:30:25;;;;;;;3.63;1.40;;;16.00;85.30;;;;;;5023899;28;20458;-65
2022/09/20 11:32:53;;;;;;;3.45;1.17;;;16.20;84.00;;;;;;5083718;28;20040;-64
2022/09/20 11:35:38;;;;;;;12.95;1.85;;;16.20;84.00;;;;;;5077520;28;20094;-65
2022/09/20 11:38:17;;;;;;;4.47;1.15;;;16.20;84.00;;;;;;5082261;28;20020;-65
2022/09/20 11:41:22;;;;;;;7.65;1.40;;;16.20;83.90;;;;;;5080747;28;20093;-64
2022/09/20 11:43:49;;;;;;;2.97;1.00;;;16.20;83.80;;;;;;5085905;28;20449;-64
2022/09/20 11:46:22;;;;;;;5.85;1.08;;;16.20;83.80;;;;;;5059810;28;20119;-64
2022/09/20 11:49:08;;;;;;;3.85;1.30;;;16.20;83.80;;;;;;5078964;28;20047;-64
2022/09/20 11:52:12;;;;;;;4.05;1.10;;;16.20;83.70;;;;;;5087282;28;20187;-64
2022/09/20 11:55:03;;;;;;;4.35;0.98;;;16.20;83.70;;;;;;5078718;28;20117;-64
2022/09/20 11:57:29;;;;;;;5.15;0.95;;;16.20;83.70;;;;;;5078282;28;20087;-64
2022/09/20 12:00:02;;;;;;;5.18;1.33;;;16.20;83.70;;;;;;5077692;28;20047;-64
2022/09/20 12:02:33;;;;;;;6.22;0.82;;;16.30;83.70;;;;;;5086090;28;20548;-64
2022/09/20 12:05:00;;;;;;;4.40;0.95;;;16.30;83.70;;;;;;5082380;28;20016;-64
2022/09/20 13:01:43;;;;;;;4.28;1.00;;;16.40;83.10;;;;;;5083599;28;20403;-64
2022/09/20 13:04:54;;;;;;;3.92;1.30;;;16.40;83.10;;;;;;5085610;28;20475;-65
2022/09/20 13:08:18;;;;;;;2.88;1.00;;;16.40;82.80;;;;;;5033885;28;20052;-65
2022/09/20 13:10:59;;;;;;;8.13;1.60;;;16.40;82.50;;;;;;5042921;28;20029;-64
2022/09/20 13:13:45;;;;;;;5.35;1.10;;;16.40;82.60;;;;;;5039627;28;20611;-64
2022/09/20 13:16:36;;;;;;;2.00;0.85;;;16.40;82.50;;;;;;5018397;28;20146;-64
2022/09/20 13:19:27;;;;;;;4.18;1.40;;;16.40;82.70;;;;;;5033044;28;20033;-66
2022/09/20 13:21:57;;;;;;;6.72;1.48;;;16.40;82.70;;;;;;5034153;28;20041;-65
2022/09/20 13:24:25;;;;;;;10.85;1.00;;;16.40;82.70;;;;;;5040506;28;20021;-64
2022/09/20 13:26:54;;;;;;;6.55;1.45;;;16.40;82.70;;;;;;5034040;28;20072;-65
2022/09/20 13:29:29;;;;;;;5.65;1.92;;;16.40;82.60;;;;;;5039056;28;20498;-64
2022/09/20 13:31:55;;;;;;;6.55;1.20;;;16.50;82.70;;;;;;5048209;28;20122;-64
2022/09/20 13:34:23;;;;;;;8.90;2.53;;;16.50;82.70;;;;;;5042555;28;20138;-64
2022/09/20 13:36:53;;;;;;;5.65;0.93;;;16.50;82.60;;;;;;5042408;28;20017;-64
2022/09/20 13:39:35;;;;;;;3.30;1.40;;;16.50;82.60;;;;;;5042391;28;20063;-65
2022/09/20 13:42:06;;;;;;;2.78;1.05;;;16.40;82.50;;;;;;5077629;28;20051;-65
2022/09/20 13:44:33;;;;;;;2.72;1.23;;;16.40;82.50;;;;;;5081393;28;20063;-65
2022/09/20 13:46:59;;;;;;;5.13;1.10;;;16.40;82.40;;;;;;5062626;28;20093;-64
2022/09/20 13:49:30;;;;;;;7.90;2.38;;;16.50;82.20;;;;;;5062476;28;20425;-65
2022/09/20 13:51:55;;;;;;;1.98;1.05;;;16.50;82.10;;;;;;5081276;28;20047;-64
2022/09/20 13:54:31;;;;;;;9.90;1.63;;;16.50;82.30;;;;;;5076492;28;20365;-64
2022/09/20 13:57:02;;;;;;;7.50;1.15;;;16.40;82.30;;;;;;5083407;28;20107;-64
2022/09/20 13:59:39;;;;;;;4.15;1.27;;;16.40;82.40;;;;;;5063296;28;20025;-64
2022/09/20 14:02:22;;;;;;;4.57;1.58;;;16.40;82.40;;;;;;5080749;28;20489;-64
2022/09/20 14:04:52;;;;;;;3.03;1.35;;;16.40;82.40;;;;;;5072579;28;20012;-64
2022/09/20 14:07:17;;;;;;;5.10;1.00;;;16.40;82.40;;;;;;5061799;28;20051;-63
2022/09/20 14:09:44;;;;;;;8.88;1.95;;;16.40;82.40;;;;;;5080644;28;20405;-64
2022/09/20 14:12:11;;;;;;;15.68;5.35;;;16.40;82.40;;;;;;5081105;28;20047;-64
2022/09/20 14:14:37;;;;;;;2.20;1.20;;;16.40;82.40;;;;;;5068383;28;20482;-65
2022/09/20 14:17:06;;;;;;;6.68;1.10;;;16.40;82.30;;;;;;5081625;28;20454;-64
2022/09/20 14:19:40;;;;;;;8.40;2.72;;;16.40;82.40;;;;;;5072834;28;20021;-64
2022/09/20 14:22:07;;;;;;;3.58;1.33;;;16.40;82.30;;;;;;5080695;28;20059;-64
2022/09/20 14:24:36;;;;;;;9.38;2.55;;;16.40;82.20;;;;;;5083388;28;20020;-64
2022/09/20 14:27:16;;;;;;;24.35;7.28;;;16.40;82.20;;;;;;5083267;28;20024;-64
2022/09/20 14:29:43;;;;;;;18.52;4.60;;;16.40;82.20;;;;;;5080679;28;20036;-63
2022/09/20 14:32:17;;;;;;;10.48;1.77;;;16.40;82.20;;;;;;5080194;28;20112;-64
2022/09/20 14:34:47;;;;;;;17.77;6.20;;;16.40;82.20;;;;;;5086778;28;20469;-65
2022/09/20 14:37:26;;;;;;;6.25;2.75;;;16.40;82.20;;;;;;5088239;28;20162;-64
2022/09/20 14:40:00;;;;;;;2.05;1.20;;;16.40;82.00;;;;;;5079193;28;20056;-63
2022/09/20 14:42:39;;;;;;;5.32;1.20;;;16.40;82.10;;;;;;5075157;28;20031;-63
2022/09/20 14:45:06;;;;;;;6.53;1.05;;;16.40;82.00;;;;;;5065551;28;20033;-65
2022/09/20 14:57:49;;;;;;;3.45;0.90;;;16.40;81.90;;;;;;5085816;28;20025;-65
2022/09/20 15:00:15;;;;;;;5.50;0.90;;;16.40;81.90;;;;;;5081246;28;20020;-65
2022/09/20 15:02:43;;;;;;;2.13;1.10;;;16.30;81.90;;;;;;5062358;28;20032;-64
2022/09/20 15:05:29;;;;;;;2.72;0.88;;;16.30;81.90;;;;;;5062295;28;20390;-64
2022/09/20 15:07:56;;;;;;;3.55;0.90;;;16.30;81.90;;;;;;5082514;28;20508;-65
2022/09/20 15:10:22;;;;;;;4.38;2.00;;;16.30;81.80;;;;;;5081896;28;20312;-65
2022/09/20 15:12:48;;;;;;;5.03;1.40;;;16.30;81.80;;;;;;5083204;28;20024;-66
2022/09/20 15:15:17;;;;;;;3.88;1.10;;;16.30;81.80;;;;;;5056777;28;20021;-65
2022/09/20 15:17:44;;;;;;;6.53;1.20;;;16.30;81.80;;;;;;5062671;28;20112;-65
2022/09/20 15:20:20;;;;;;;2.85;0.90;;;16.30;81.80;;;;;;5087338;28;20024;-65
2022/09/20 15:22:48;;;;;;;1.95;0.80;;;16.30;81.80;;;;;;5079837;28;20027;-65
2022/09/20 15:25:16;;;;;;;1.83;1.00;;;16.30;81.70;;;;;;5078249;28;20033;-65
2022/09/20 15:27:43;;;;;;;9.90;1.15;;;16.30;81.90;;;;;;5081703;28;20477;-65
2022/09/20 15:30:11;;;;;;;5.80;1.13;;;16.30;81.90;;;;;;5083175;28;20186;-65
2022/09/20 15:32:37;;;;;;;3.88;0.98;;;16.30;81.80;;;;;;5065344;28;20088;-65
2022/09/20 15:35:03;;;;;;;3.00;1.15;;;16.30;81.80;;;;;;5082600;28;20106;-64
2022/09/20 15:37:28;;;;;;;8.40;1.27;;;16.30;81.90;;;;;;5081787;28;20109;-62
2022/09/20 15:39:54;;;;;;;2.53;1.00;;;16.30;81.90;;;;;;5082584;28;20071;-63
2022/09/20 15:42:20;;;;;;;8.23;1.42;;;16.20;81.80;;;;;;5082367;28;20032;-63
2022/09/20 15:44:50;;;;;;;3.90;1.13;;;16.30;81.80;;;;;;5082607;28;20027;-63
2022/09/20 15:47:16;;;;;;;3.50;1.17;;;16.30;81.80;;;;;;5073310;28;20119;-63
2022/09/20 15:49:45;;;;;;;6.10;1.00;;;16.20;81.80;;;;;;5082665;28;20481;-63
2022/09/20 15:52:12;;;;;;;7.35;1.88;;;16.30;81.80;;;;;;5082378;28;20060;-62
2022/09/20 15:54:38;;;;;;;4.70;1.60;;;16.20;81.80;;;;;;5074063;28;20093;-63
2022/09/20 15:57:03;;;;;;;3.03;1.20;;;16.30;81.80;;;;;;5081137;28;20082;-62
2022/09/20 15:59:31;;;;;;;4.88;1.13;;;16.20;81.80;;;;;;5080133;28;20475;-62
2022/09/20 16:01:58;;;;;;;6.22;1.92;;;16.20;81.80;;;;;;5063820;28;20035;-62
2022/09/20 16:04:26;;;;;;;5.43;1.20;;;16.20;81.80;;;;;;5080954;28;20032;-62
2022/09/20 16:06:52;;;;;;;3.03;1.30;;;16.20;81.80;;;;;;5081257;28;20019;-62
2022/09/20 16:09:18;;;;;;;5.15;1.52;;;16.20;81.80;;;;;;5081660;28;20081;-61
2022/09/20 16:11:47;;;;;;;6.70;1.52;;;16.30;81.80;;;;;;5078973;28;20031;-62
2022/09/20 16:14:13;;;;;;;2.47;1.05;;;16.20;81.80;;;;;;5078496;28;20116;-62
2022/09/20 16:16:39;;;;;;;7.60;1.90;;;16.20;81.80;;;;;;5075904;28;20107;-62
2022/09/20 16:19:18;;;;;;;3.22;1.27;;;16.20;81.80;;;;;;5085570;28;20024;-63
2022/09/20 16:21:47;;;;;;;7.05;1.42;;;16.20;81.80;;;;;;5074174;28;20393;-63
2022/09/20 16:24:13;;;;;;;2.00;1.38;;;16.20;81.80;;;;;;5072751;28;20454;-62
2022/09/20 16:26:39;;;;;;;6.38;1.58;;;16.20;81.70;;;;;;5081014;28;20018;-63
2022/09/20 16:29:10;;;;;;;5.50;1.40;;;16.20;81.70;;;;;;5082231;28;20165;-61
2022/09/20 16:31:41;;;;;;;;;;;16.20;81.80;;;;;;5074526;28;20546;-64
2022/09/20 16:34:29;;;;;;;5.82;1.55;;;16.20;81.70;;;;;;5072257;28;20019;-63
2022/09/20 16:37:04;;;;;;;9.68;2.00;;;16.20;81.70;;;;;;5084313;28;20028;-64
2022/09/20 16:39:31;;;;;;;8.27;1.63;;;16.20;81.70;;;;;;5068656;28;20020;-63
2022/09/20 16:42:04;;;;;;;8.35;2.55;;;16.20;81.70;;;;;;5088745;28;20081;-63
2022/09/20 16:44:32;;;;;;;4.88;1.80;;;16.10;81.60;;;;;;5080099;28;20071;-63
2022/09/20 16:46:58;;;;;;;10.80;3.10;;;16.10;81.60;;;;;;5086041;28;20017;-64
2022/09/20 16:49:27;;;;;;;7.68;1.80;;;16.10;81.70;;;;;;5080317;28;20036;-64
2022/09/20 16:51:53;;;;;;;4.65;1.90;;;16.10;81.70;;;;;;5074685;28;20492;-63
2022/09/20 16:54:19;;;;;;;2.05;1.20;;;16.10;81.70;;;;;;5067075;28;20024;-62
2022/09/20 16:56:47;;;;;;;9.02;1.58;;;16.10;81.70;;;;;;5087620;28;20035;-64
2022/09/20 16:59:16;;;;;;;4.07;1.45;;;16.10;81.70;;;;;;5087381;28;20067;-63
2022/09/20 17:01:43;;;;;;;11.95;2.03;;;16.10;81.60;;;;;;5086119;28;20496;-63
2022/09/20 17:04:12;;;;;;;2.33;1.45;;;16.10;81.70;;;;;;5069336;28;20055;-64
2022/09/20 17:06:42;;;;;;;2.05;1.30;;;16.10;81.70;;;;;;5074787;28;20492;-63
2022/09/20 23:12:22;;;;;;;13.35;4.45;;;15.00;82.10;;;;;;5083329;28;20033;-66
